Time;durP1;ratioP1;P1;durP2;ratioP2;P2;SDS_P1;SDS_P2;PMS_P1;PMS_P2;Temp;Humidity;BMP_temperature;BMP_pressure;BME280_temperature;BME280_humidity;BME280_pressure;Samples;Min_cycle;Max_cycle;Signal;HPM_P1;HPM_P2
2022/10/26 03:54:44;;;;;;;2.30;1.80;;;;;;;6.56;77.00;101353.06;5038856;27;97654;-79
2022/10/26 03:57:09;;;;;;;4.47;2.40;;;;;;;7.11;75.48;101341.16;5050781;27;97304;-79
2022/10/26 03:59:36;;;;;;;5.80;2.20;;;;;;;7.57;74.52;101340.06;5062659;27;108929;-79
2022/10/26 04:02:01;;;;;;;4.23;2.90;;;;;;;7.94;73.55;101342.81;5065571;27;97145;-79
2022/10/26 04:04:26;;;;;;;3.33;2.30;;;;;;;8.20;72.98;101333.06;5069312;27;102861;-80
2022/10/26 04:06:52;;;;;;;3.03;2.67;;;;;;;8.46;72.17;101347.19;5064435;27;96916;-79
2022/10/26 16:51:15;;;;;;;4.97;1.05;;;;;;;14.56;77.77;101589.41;5018841;27;97150;-80
2022/10/26 16:53:41;;;;;;;2.77;1.40;;;;;;;15.04;76.90;101601.16;5028696;27;97528;-80
2022/10/26 16:56:12;;;;;;;3.57;1.30;;;;;;;15.48;75.74;101603.28;5021641;27;99871;-79
2022/10/26 16:58:38;;;;;;;1.73;1.03;;;;;;;15.81;74.51;101599.75;5036266;27;98275;-80
2022/10/26 17:01:05;;;;;;;6.90;1.10;;;;;;;16.05;73.61;101606.31;5016909;27;97088;-80
2022/10/26 17:03:31;;;;;;;6.50;1.20;;;;;;;16.24;72.80;101601.72;5021656;28;97002;-80
2022/10/26 17:06:02;;;;;;;3.83;1.27;;;;;;;16.40;72.26;101602.94;5019816;27;99551;-80
2022/10/26 17:08:28;;;;;;;3.43;1.33;;;;;;;16.54;71.65;101615.03;5013290;27;102979;-80
2022/10/26 17:11:00;;;;;;;7.47;1.17;;;;;;;16.64;71.09;101613.50;5022418;27;97171;-80
2022/10/26 17:13:25;;;;;;;5.10;1.00;;;;;;;16.70;70.84;101619.78;5008349;27;96918;-80
2022/10/26 17:15:51;;;;;;;2.80;1.20;;;;;;;16.73;70.35;101616.72;5017536;27;99415;-79
2022/10/26 17:18:16;;;;;;;4.33;1.17;;;;;;;16.78;70.02;101621.50;5012641;27;97208;-79
2022/10/26 17:20:48;;;;;;;5.00;1.43;;;;;;;16.82;69.65;101618.47;5013862;27;97971;-80
2022/10/26 17:23:14;;;;;;;3.20;1.23;;;;;;;16.84;69.58;101636.13;5013170;27;97192;-80
2022/10/26 17:25:39;;;;;;;1.90;1.20;;;;;;;16.85;69.47;101629.31;5012518;27;101172;-80
2022/10/26 17:28:04;;;;;;;2.30;1.40;;;;;;;16.86;69.23;101641.94;5018923;27;97119;-79
2022/10/26 17:30:31;;;;;;;5.63;1.43;;;;;;;16.88;69.14;101649.78;5012819;27;97660;-80
2022/10/26 17:32:56;;;;;;;2.47;0.93;;;;;;;16.87;68.96;101651.78;5012336;28;96932;-80
2022/10/26 17:35:22;;;;;;;4.40;1.70;;;;;;;16.87;68.88;101659.38;5018104;27;97527;-80
2022/10/26 17:37:47;;;;;;;5.37;1.10;;;;;;;16.85;68.81;101673.03;5022540;27;96929;-80
2022/10/26 17:40:13;;;;;;;3.83;1.17;;;;;;;16.86;68.50;101657.88;5022483;27;97336;-80
2022/10/26 17:42:39;;;;;;;8.13;1.23;;;;;;;16.83;68.43;101675.56;5019148;27;96928;-80
2022/10/26 17:45:05;;;;;;;2.57;1.23;;;;;;;16.77;68.31;101660.94;5012484;27;97564;-81
2022/10/26 17:47:30;;;;;;;3.77;1.40;;;;;;;16.72;68.19;101668.03;5041360;27;98503;-80
2022/10/26 17:49:56;;;;;;;5.77;1.70;;;;;;;16.69;68.24;101671.81;5011846;27;100936;-79
2022/10/26 17:52:23;;;;;;;6.63;1.00;;;;;;;16.69;68.12;101680.16;5009971;27;97084;-80
2022/10/26 17:54:49;;;;;;;1.00;0.83;;;;;;;16.65;68.02;101670.56;5019498;27;97773;-80
2022/10/26 17:57:15;;;;;;;1.93;0.90;;;;;;;16.64;68.03;101689.28;5021513;27;97558;-80
2022/10/26 17:59:40;;;;;;;2.47;1.30;;;;;;;16.59;68.07;101695.59;5019717;27;96979;-79
2022/10/26 18:02:05;;;;;;;1.47;1.20;;;;;;;16.57;68.21;101692.56;5005226;27;96863;-80
2022/10/26 18:04:31;;;;;;;6.00;1.10;;;;;;;16.56;67.90;101706.94;5001322;27;97446;-80
2022/10/26 18:06:56;;;;;;;4.87;1.10;;;;;;;16.52;67.94;101698.13;4999616;27;99853;-80
2022/10/26 18:09:22;;;;;;;4.33;1.60;;;;;;;16.51;67.82;101697.41;5007574;27;96997;-80
2022/10/26 18:11:47;;;;;;;2.73;1.23;;;;;;;16.46;67.94;101704.44;5002108;27;97488;-80
2022/10/26 18:14:13;;;;;;;2.30;0.83;;;;;;;16.48;67.86;101715.03;5002989;27;99810;-80
2022/10/26 18:16:38;;;;;;;2.60;1.37;;;;;;;16.46;67.77;101723.13;5005766;27;98649;-79
2022/10/26 18:19:04;;;;;;;3.90;1.30;;;;;;;16.44;67.46;101720.88;5001873;27;97157;-80
2022/10/26 18:21:31;;;;;;;6.43;1.30;;;;;;;16.43;67.69;101719.34;5003079;27;96812;-79
2022/10/26 18:23:57;;;;;;;4.33;1.17;;;;;;;16.38;67.61;101725.66;4999059;27;97423;-79
2022/10/26 18:26:27;;;;;;;5.00;1.20;;;;;;;16.38;67.51;101730.47;5007886;27;97364;-80
2022/10/26 18:28:54;;;;;;;2.87;1.00;;;;;;;16.35;67.63;101737.03;4995349;28;97304;-79
2022/10/26 18:31:21;;;;;;;1.40;1.30;;;;;;;16.32;67.64;101741.56;5007739;27;96730;-79
2022/10/26 18:33:46;;;;;;;4.07;1.47;;;;;;;16.31;67.59;101742.06;5003694;27;99507;-80
2022/10/26 18:36:14;;;;;;;2.20;1.30;;;;;;;16.28;67.60;101743.84;5008220;27;97850;-80
2022/10/26 18:38:40;;;;;;;7.13;1.33;;;;;;;16.26;67.47;101756.72;5011977;27;97155;-79
2022/10/26 18:41:09;;;;;;;5.23;1.50;;;;;;;16.24;67.65;101753.69;5000237;27;96895;-79
2022/10/26 18:43:38;;;;;;;2.90;1.20;;;;;;;16.24;67.32;101773.88;5004817;27;100176;-79
2022/10/26 18:46:08;;;;;;;7.53;1.10;;;;;;;16.20;67.60;101755.97;5018641;27;98451;-79
2022/10/26 18:48:34;;;;;;;5.70;1.50;;;;;;;16.21;67.44;101765.78;4997520;28;96976;-80
2022/10/26 18:51:08;;;;;;;8.40;1.60;;;;;;;16.20;67.29;101767.84;5003853;28;97508;-80
2022/10/26 18:53:35;;;;;;;2.00;1.20;;;;;;;16.16;67.32;101769.34;5001883;27;100844;-80
2022/10/26 18:56:03;;;;;;;2.83;1.50;;;;;;;16.15;67.24;101781.69;5006572;27;98601;-80
2022/10/26 18:58:30;;;;;;;7.93;1.77;;;;;;;16.12;67.27;101771.63;5003844;27;96694;-79
2022/10/26 19:01:07;;;;;;;6.20;2.13;;;;;;;16.08;67.03;101768.31;5004935;27;96914;-79
2022/10/26 19:03:33;;;;;;;2.43;1.67;;;;;;;16.04;67.40;101790.78;5000698;27;100858;-80
2022/10/26 19:06:13;;;;;;;1.03;1.03;;;;;;;16.02;67.08;101790.53;5003422;27;97465;-79
2022/10/26 19:08:39;;;;;;;5.80;1.43;;;;;;;16.00;67.15;101786.72;5002043;27;97086;-80
2022/10/26 19:11:07;;;;;;;4.93;1.57;;;;;;;15.99;67.27;101788.00;5005925;27;97261;-80
2022/10/26 19:13:32;;;;;;;5.50;2.10;;;;;;;15.96;67.25;101789.75;5002438;28;100900;-79
2022/10/26 19:16:03;;;;;;;3.13;1.93;;;;;;;15.94;67.17;101814.50;5006972;27;99418;-79
2022/10/26 19:18:28;;;;;;;2.20;2.00;;;;;;;15.91;67.30;101815.47;5002222;27;97339;-80
2022/10/26 19:21:02;;;;;;;4.57;2.27;;;;;;;15.92;66.93;101805.13;4998250;27;97251;-79
2022/10/26 19:23:35;;;;;;;2.60;2.23;;;;;;;15.89;67.03;101812.44;4999754;27;100538;-80
2022/10/26 19:26:02;;;;;;;6.60;2.30;;;;;;;15.85;67.11;101811.94;5004310;27;102248;-79
2022/10/26 19:28:28;;;;;;;4.13;1.60;;;;;;;15.84;67.06;101815.19;4999073;27;97089;-80
2022/10/26 19:30:54;;;;;;;7.80;2.30;;;;;;;15.77;66.93;101825.53;5015603;27;98060;-80
2022/10/26 19:33:19;;;;;;;4.60;2.50;;;;;;;15.77;67.03;101821.25;5001338;27;99378;-80
2022/10/26 19:35:45;;;;;;;7.00;2.33;;;;;;;15.72;67.20;101820.75;5002089;28;98485;-80
2022/10/26 19:38:10;;;;;;;4.60;2.57;;;;;;;15.68;66.98;101820.19;5000027;27;97146;-79
2022/10/26 19:40:36;;;;;;;4.00;2.50;;;;;;;15.69;67.04;101820.97;5004281;27;97188;-79
2022/10/26 19:43:01;;;;;;;10.53;2.23;;;;;;;15.64;66.97;101830.78;4999027;27;98493;-79
2022/10/26 19:45:27;;;;;;;6.27;2.00;;;;;;;15.58;67.19;101832.78;5003579;27;97457;-80
2022/10/26 19:47:52;;;;;;;7.30;1.90;;;;;;;15.58;66.93;101838.31;4997653;27;97198;-80
2022/10/26 19:50:17;;;;;;;3.77;2.50;;;;;;;15.56;66.96;101840.06;5001728;27;97236;-79
2022/10/26 19:52:43;;;;;;;4.40;2.33;;;;;;;15.53;67.03;101855.69;5003718;27;96957;-79
2022/10/26 19:55:08;;;;;;;6.50;2.40;;;;;;;15.50;66.73;101848.38;4994247;27;98428;-80
2022/10/26 19:57:34;;;;;;;5.17;2.87;;;;;;;15.49;66.76;101854.41;5003537;27;97011;-79
2022/10/26 19:59:59;;;;;;;6.73;3.00;;;;;;;15.46;66.91;101856.19;5000172;27;97356;-80
2022/10/26 20:02:24;;;;;;;13.20;3.17;;;;;;;15.43;67.05;101871.03;5003023;27;98761;-79
2022/10/26 20:04:50;;;;;;;4.50;2.60;;;;;;;15.43;67.01;101861.94;5004829;27;97279;-80
2022/10/26 20:07:16;;;;;;;6.27;2.70;;;;;;;15.40;66.85;101855.34;4999240;28;96964;-79
2022/10/26 20:09:41;;;;;;;4.63;2.13;;;;;;;15.40;66.95;101860.13;4997336;28;98350;-79
2022/10/26 20:12:11;;;;;;;3.80;2.53;;;;;;;15.39;66.88;101864.19;5000415;27;100666;-79
2022/10/26 20:14:37;;;;;;;4.10;2.27;;;;;;;15.37;66.91;101855.59;5004548;27;98188;-79
2022/10/26 20:17:03;;;;;;;5.00;2.70;;;;;;;15.33;66.84;101864.13;5005163;27;97204;-79
2022/10/26 20:19:28;;;;;;;7.63;2.50;;;;;;;15.32;66.84;101864.63;5003293;27;97388;-80
2022/10/26 20:21:54;;;;;;;4.00;3.00;;;;;;;15.29;66.78;101863.59;5005838;27;100204;-79
2022/10/26 20:24:19;;;;;;;3.83;2.63;;;;;;;15.26;66.91;101877.72;5002149;27;98425;-79
2022/10/26 20:26:45;;;;;;;5.43;2.43;;;;;;;15.25;66.79;101876.94;5005232;28;96749;-80
2022/10/26 20:29:10;;;;;;;3.37;2.33;;;;;;;15.23;66.91;101873.16;5001274;27;97335;-80
2022/10/26 20:31:36;;;;;;;3.50;2.53;;;;;;;15.19;66.85;101878.94;5001950;27;98612;-79
2022/10/26 20:34:01;;;;;;;3.37;1.73;;;;;;;15.19;66.79;101873.38;5000597;27;99375;-79
2022/10/26 20:36:26;;;;;;;4.53;2.50;;;;;;;15.18;66.93;101882.22;5007325;28;97063;-79
2022/10/26 20:38:52;;;;;;;5.00;2.73;;;;;;;15.17;66.88;101869.59;4999171;27;97930;-80
2022/10/26 20:41:18;;;;;;;3.53;2.10;;;;;;;15.16;66.79;101877.13;4999137;27;97914;-80
2022/10/26 20:43:44;;;;;;;5.77;2.50;;;;;;;15.14;66.73;101878.88;4997031;27;97822;-79
2022/10/26 20:46:30;;;;;;;3.03;2.27;;;;;;;15.12;66.62;101884.94;5003168;28;97184;-79
2022/10/26 20:48:55;;;;;;;5.80;2.30;;;;;;;15.10;66.57;101883.91;4998808;28;96946;-80
2022/10/26 20:51:40;;;;;;;6.90;2.83;;;;;;;15.08;66.62;101894.72;5003189;27;99084;-79
2022/10/26 20:54:29;;;;;;;2.27;2.17;;;;;;;15.05;66.65;101913.09;4996310;27;98748;-80
2022/10/26 20:56:59;;;;;;;4.77;2.20;;;;;;;15.03;66.67;101896.19;4996741;27;97338;-79
2022/10/26 20:59:30;;;;;;;4.57;2.27;;;;;;;15.01;66.61;101907.03;4998500;27;97531;-80
2022/10/26 21:01:56;;;;;;;7.60;2.37;;;;;;;14.99;66.78;101899.22;4994968;27;97232;-80
2022/10/26 21:04:21;;;;;;;3.13;2.17;;;;;;;14.99;66.75;101901.97;5006076;27;98085;-79
2022/10/26 21:06:47;;;;;;;4.03;2.23;;;;;;;14.98;66.66;101911.53;4999490;28;96877;-80
2022/10/26 21:09:12;;;;;;;2.90;2.60;;;;;;;14.95;66.51;101912.53;5006671;27;97038;-79
2022/10/26 21:11:37;;;;;;;3.70;2.40;;;;;;;14.90;66.61;101910.47;4999795;27;97431;-79
2022/10/26 21:14:04;;;;;;;5.23;2.70;;;;;;;14.89;66.58;101916.50;5002424;27;98222;-80
2022/10/26 21:16:29;;;;;;;2.60;2.17;;;;;;;14.87;66.58;101924.56;5001170;28;97129;-79
2022/10/26 21:18:55;;;;;;;3.13;2.40;;;;;;;14.83;66.60;101916.44;5002207;28;97297;-80
2022/10/26 21:21:20;;;;;;;4.37;2.50;;;;;;;14.83;66.74;101916.44;5006702;27;99819;-80
2022/10/26 21:23:46;;;;;;;3.63;2.47;;;;;;;14.79;66.74;101929.78;5007703;27;98495;-80
2022/10/26 21:26:11;;;;;;;3.97;2.40;;;;;;;14.80;66.69;101920.22;4999700;28;96961;-80
2022/10/26 21:28:44;;;;;;;7.10;2.50;;;;;;;14.80;66.57;101922.22;4999814;27;96750;-80
2022/10/26 21:31:11;;;;;;;2.93;2.70;;;;;;;14.78;66.73;101933.81;4995448;27;100477;-79
2022/10/26 21:33:37;;;;;;;6.30;2.47;;;;;;;14.74;66.64;101935.28;5002052;27;98639;-80
2022/10/26 21:36:05;;;;;;;11.30;2.53;;;;;;;14.72;66.91;101940.53;4995770;27;97237;-80
2022/10/26 21:38:31;;;;;;;4.30;2.30;;;;;;;14.69;66.79;101933.22;5005148;27;96889;-80
2022/10/26 21:41:08;;;;;;;3.83;2.40;;;;;;;14.67;66.58;101936.47;5011772;27;97551;-79
2022/10/26 21:43:35;;;;;;;15.77;3.13;;;;;;;14.67;66.73;101935.72;5011410;27;102375;-81
2022/10/26 21:46:01;;;;;;;8.07;2.10;;;;;;;14.66;66.57;101937.72;5005880;28;97343;-80
2022/10/26 21:48:27;;;;;;;4.40;2.20;;;;;;;14.64;66.81;101948.53;5006046;28;96951;-80
2022/10/26 21:50:53;;;;;;;2.40;2.20;;;;;;;14.63;66.70;101946.25;5005194;27;97922;-80
2022/10/26 21:53:19;;;;;;;6.10;2.40;;;;;;;14.59;66.78;101963.06;5009106;27;98942;-80
2022/10/26 21:55:44;;;;;;;6.17;2.47;;;;;;;14.60;66.74;101950.75;5010832;28;96967;-80
2022/10/26 21:58:10;;;;;;;6.00;1.90;;;;;;;14.58;66.74;101963.56;5009000;28;96794;-80
2022/10/26 22:00:36;;;;;;;2.57;2.37;;;;;;;14.60;66.74;101955.53;5006471;28;97636;-80
2022/10/26 22:03:01;;;;;;;13.87;2.43;;;;;;;14.60;66.68;101952.75;4993927;27;98543;-80
2022/10/26 22:05:28;;;;;;;2.83;2.53;;;;;;;14.59;66.83;101948.47;5006228;28;96968;-80
2022/10/26 22:07:54;;;;;;;3.43;2.50;;;;;;;14.58;66.65;101963.56;5004220;27;96702;-80
2022/10/26 22:10:19;;;;;;;5.07;1.90;;;;;;;14.57;66.73;101959.28;5002974;27;97916;-80
2022/10/26 22:12:45;;;;;;;2.90;2.37;;;;;;;14.56;66.74;101964.06;5007101;27;96365;-79
2022/10/26 22:15:10;;;;;;;3.87;2.20;;;;;;;14.55;66.61;101959.75;4999569;27;97142;-79
2022/10/26 22:17:39;;;;;;;6.57;2.37;;;;;;;14.53;66.63;101955.94;5007703;27;97101;-80
2022/10/26 22:20:06;;;;;;;2.90;2.20;;;;;;;14.51;66.72;101966.75;5004493;27;96787;-80
2022/10/26 22:22:32;;;;;;;7.70;2.30;;;;;;;14.50;66.65;101957.72;5007288;28;96804;-80
2022/10/26 22:24:57;;;;;;;3.17;2.27;;;;;;;14.49;66.71;101958.19;5007320;27;97006;-80
2022/10/26 22:27:23;;;;;;;2.43;2.17;;;;;;;14.47;66.70;101978.06;5004632;28;97064;-80
2022/10/26 22:29:48;;;;;;;11.30;2.60;;;;;;;14.43;66.65;101968.44;5007808;28;98775;-80
2022/10/26 22:32:14;;;;;;;2.10;1.80;;;;;;;14.41;66.63;101962.63;5004769;27;96608;-81
2022/10/26 22:34:39;;;;;;;2.50;1.80;;;;;;;14.41;66.80;101973.72;5007270;27;97126;-80
2022/10/26 22:37:05;;;;;;;3.30;2.27;;;;;;;14.38;66.72;101971.91;5008223;27;97085;-80
2022/10/26 22:39:30;;;;;;;1.83;1.57;;;;;;;14.36;66.66;101964.09;5008562;27;97909;-80
2022/10/26 22:41:55;;;;;;;8.53;2.00;;;;;;;14.37;66.85;101968.41;5006083;28;100122;-80
2022/10/26 22:44:21;;;;;;;6.07;2.47;;;;;;;14.39;66.67;101970.66;5004237;27;96967;-79
2022/10/26 22:46:46;;;;;;;8.83;2.27;;;;;;;14.37;66.70;101971.16;5003287;27;97121;-79
2022/10/26 22:49:12;;;;;;;5.77;2.10;;;;;;;14.37;66.64;101973.94;5006486;27;97219;-79
2022/10/26 22:51:37;;;;;;;4.10;2.43;;;;;;;14.36;66.78;101974.41;5001701;28;99469;-80
2022/10/26 22:54:03;;;;;;;2.90;2.47;;;;;;;14.32;66.64;101969.09;5005379;27;97334;-80
2022/10/26 22:56:30;;;;;;;3.53;2.23;;;;;;;14.33;66.76;101978.91;5008007;27;96900;-80
2022/10/26 22:58:56;;;;;;;6.10;2.47;;;;;;;14.32;66.76;101973.84;5007782;27;97920;-79
2022/10/26 23:01:29;;;;;;;6.23;3.10;;;;;;;14.30;66.69;101971.56;5003658;27;97491;-80
2022/10/26 23:03:55;;;;;;;10.70;2.60;;;;;;;14.29;66.67;101978.34;5004023;28;97195;-80
2022/10/26 23:06:22;;;;;;;5.73;2.43;;;;;;;14.26;66.61;101973.78;5004984;27;96926;-80
2022/10/26 23:08:48;;;;;;;4.27;2.90;;;;;;;14.25;66.67;101981.31;4998023;28;98505;-80
2022/10/26 23:11:16;;;;;;;4.50;1.50;;;;;;;14.25;66.61;101983.31;5009615;27;98489;-80
2022/10/26 23:13:42;;;;;;;4.07;1.73;;;;;;;14.24;66.80;101987.34;5005074;27;96770;-80
2022/10/26 23:16:13;;;;;;;1.93;1.80;;;;;;;14.25;66.87;101988.84;5002737;27;96784;-79
2022/10/26 23:18:39;;;;;;;5.57;2.20;;;;;;;14.22;66.62;101975.97;5015099;27;97067;-79
2022/10/26 23:21:06;;;;;;;4.70;2.13;;;;;;;14.23;66.59;101989.34;5004459;27;96777;-80
2022/10/26 23:23:32;;;;;;;6.73;2.50;;;;;;;14.21;66.67;101988.31;5008155;27;97282;-80
2022/10/26 23:26:02;;;;;;;4.10;2.30;;;;;;;14.19;66.63;101988.03;5007445;27;96702;-79
2022/10/26 23:28:28;;;;;;;6.73;2.70;;;;;;;14.17;66.61;101991.28;5003884;27;102133;-80
2022/10/26 23:30:53;;;;;;;2.13;2.03;;;;;;;14.10;66.67;101988.16;5002271;27;97278;-80
2022/10/26 23:33:18;;;;;;;5.83;2.33;;;;;;;14.14;66.84;102016.38;5007400;27;97044;-80
2022/10/26 23:35:44;;;;;;;10.40;2.73;;;;;;;14.14;66.70;102008.09;5003816;27;97080;-80
2022/10/26 23:38:09;;;;;;;2.73;2.33;;;;;;;14.12;66.64;101996.75;5006055;28;100383;-79
2022/10/26 23:40:34;;;;;;;7.17;2.30;;;;;;;14.11;66.62;102020.09;5003139;27;97503;-80
2022/10/26 23:43:00;;;;;;;5.90;3.10;;;;;;;14.09;66.87;101994.91;5007972;28;97210;-80
2022/10/26 23:45:25;;;;;;;6.23;2.70;;;;;;;14.07;66.86;101992.66;5009055;28;96949;-80
2022/10/26 23:47:51;;;;;;;4.03;2.70;;;;;;;14.08;66.76;102005.25;5002472;28;97171;-80
2022/10/26 23:50:16;;;;;;;5.77;2.17;;;;;;;14.07;66.83;101986.34;5008655;27;97206;-79
2022/10/26 23:52:47;;;;;;;5.87;2.87;;;;;;;14.07;66.71;102000.19;5007284;27;96969;-80
2022/10/26 23:55:12;;;;;;;3.00;2.20;;;;;;;14.09;66.61;101998.47;5007197;27;97164;-79
2022/10/26 23:57:38;;;;;;;4.33;2.60;;;;;;;14.07;66.86;102023.09;5005968;27;96759;-80
